sensor_id;sensor_type;location;lat;lon;timestamp;pressure;altitude;pressure_sealevel;temperature;humidity
66430;BME280;53242;51.694;10.006;2023-04-07T00:00:46;99609.72;;;6.20;49.27
66430;BME280;53242;51.694;10.006;2023-04-07T00:03:09;99610.84;;;6.09;49.30
66430;BME280;53242;51.694;10.006;2023-04-07T00:05:32;99609.56;;;6.13;49.26
66430;BME280;53242;51.694;10.006;2023-04-07T00:07:54;99603.97;;;6.00;49.59
66430;BME280;53242;51.694;10.006;2023-04-07T00:10:17;99607.41;;;6.00;49.44
66430;BME280;53242;51.694;10.006;2023-04-07T00:12:39;99609.38;;;5.98;49.35
66430;BME280;53242;51.694;10.006;2023-04-07T00:15:02;99606.38;;;5.93;49.58
66430;BME280;53242;51.694;10.006;2023-04-07T00:17:24;99604.81;;;6.00;49.15
66430;BME280;53242;51.694;10.006;2023-04-07T00:19:47;99610.94;;;5.91;49.87
66430;BME280;53242;51.694;10.006;2023-04-07T00:22:09;99601.47;;;5.90;49.67
66430;BME280;53242;51.694;10.006;2023-04-07T00:24:32;99600.63;;;5.81;49.90
66430;BME280;53242;51.694;10.006;2023-04-07T00:26:54;99594.56;;;5.81;50.02
66430;BME280;53242;51.694;10.006;2023-04-07T00:29:18;99597.63;;;5.59;50.92
66430;BME280;53242;51.694;10.006;2023-04-07T00:31:41;99594.38;;;5.66;50.76
66430;BME280;53242;51.694;10.006;2023-04-07T00:34:03;99592.22;;;5.61;51.19
66430;BME280;53242;51.694;10.006;2023-04-07T00:36:25;99590.75;;;5.58;50.85
66430;BME280;53242;51.694;10.006;2023-04-07T00:38:49;99591.38;;;5.52;51.37
66430;BME280;53242;51.694;10.006;2023-04-07T00:41:11;99588.94;;;5.51;51.38
66430;BME280;53242;51.694;10.006;2023-04-07T00:43:34;99587.97;;;5.52;51.51
66430;BME280;53242;51.694;10.006;2023-04-07T00:45:56;99587.09;;;5.43;51.90
66430;BME280;53242;51.694;10.006;2023-04-07T00:48:19;99582.53;;;5.45;51.63
66430;BME280;53242;51.694;10.006;2023-04-07T00:50:44;99578.91;;;5.38;51.68
66430;BME280;53242;51.694;10.006;2023-04-07T00:53:06;99592.53;;;5.50;51.50
66430;BME280;53242;51.694;10.006;2023-04-07T00:55:29;99580.56;;;5.39;51.74
66430;BME280;53242;51.694;10.006;2023-04-07T00:57:52;99579.59;;;5.40;51.56
66430;BME280;53242;51.694;10.006;2023-04-07T01:00:15;99575.50;;;5.37;51.88
66430;BME280;53242;51.694;10.006;2023-04-07T01:02:42;99574.00;;;5.35;52.04
66430;BME280;53242;51.694;10.006;2023-04-07T01:05:24;99576.63;;;5.35;51.91
66430;BME280;53242;51.694;10.006;2023-04-07T01:10:39;99573.78;;;5.20;52.06
66430;BME280;53242;51.694;10.006;2023-04-07T01:15:48;99571.97;;;5.20;52.26
66430;BME280;53242;51.694;10.006;2023-04-07T01:18:19;99562.97;;;5.23;51.92
66430;BME280;53242;51.694;10.006;2023-04-07T01:20:44;99568.72;;;5.18;52.56
66430;BME280;53242;51.694;10.006;2023-04-07T01:23:17;99562.00;;;5.16;52.67
66430;BME280;53242;51.694;10.006;2023-04-07T01:26:06;99565.41;;;5.16;52.69
66430;BME280;53242;51.694;10.006;2023-04-07T01:31:33;99572.81;;;5.21;52.16
66430;BME280;53242;51.694;10.006;2023-04-07T01:33:58;99563.41;;;5.10;52.68
66430;BME280;53242;51.694;10.006;2023-04-07T01:36:23;99560.16;;;5.08;52.75
66430;BME280;53242;51.694;10.006;2023-04-07T01:38:49;99556.72;;;5.07;52.87
66430;BME280;53242;51.694;10.006;2023-04-07T01:41:13;99558.53;;;5.07;52.95
66430;BME280;53242;51.694;10.006;2023-04-07T01:43:38;99558.78;;;4.96;53.00
66430;BME280;53242;51.694;10.006;2023-04-07T01:46:01;99548.38;;;5.04;52.61
66430;BME280;53242;51.694;10.006;2023-04-07T01:48:24;99559.75;;;4.94;53.49
66430;BME280;53242;51.694;10.006;2023-04-07T01:50:49;99559.63;;;4.96;53.11
66430;BME280;53242;51.694;10.006;2023-04-07T01:53:12;99547.53;;;5.03;53.02
66430;BME280;53242;51.694;10.006;2023-04-07T01:55:36;99564.19;;;4.94;53.37
66430;BME280;53242;51.694;10.006;2023-04-07T01:58:04;99557.50;;;5.00;53.21
66430;BME280;53242;51.694;10.006;2023-04-07T02:00:27;99558.78;;;4.96;53.05
66430;BME280;53242;51.694;10.006;2023-04-07T02:02:54;99561.25;;;4.97;53.04
66430;BME280;53242;51.694;10.006;2023-04-07T02:05:20;99554.03;;;4.91;53.30
66430;BME280;53242;51.694;10.006;2023-04-07T02:07:51;99556.34;;;5.02;52.84
66430;BME280;53242;51.694;10.006;2023-04-07T02:10:15;99561.06;;;4.90;53.36
66430;BME280;53242;51.694;10.006;2023-04-07T02:12:39;99555.19;;;4.97;53.15
66430;BME280;53242;51.694;10.006;2023-04-07T02:15:11;99561.47;;;5.04;52.59
66430;BME280;53242;51.694;10.006;2023-04-07T02:17:35;99559.47;;;4.98;53.08
66430;BME280;53242;51.694;10.006;2023-04-07T02:20:00;99554.03;;;4.91;52.91
66430;BME280;53242;51.694;10.006;2023-04-07T02:22:24;99554.03;;;4.91;52.95
66430;BME280;53242;51.694;10.006;2023-04-07T02:24:47;99557.63;;;4.90;53.22
66430;BME280;53242;51.694;10.006;2023-04-07T02:27:10;99552.41;;;4.98;52.61
66430;BME280;53242;51.694;10.006;2023-04-07T02:29:32;99546.38;;;4.98;52.85
66430;BME280;53242;51.694;10.006;2023-04-07T02:31:55;99542.59;;;4.92;53.22
66430;BME280;53242;51.694;10.006;2023-04-07T02:34:17;99549.00;;;4.98;52.95
66430;BME280;53242;51.694;10.006;2023-04-07T02:36:40;99555.63;;;4.84;53.34
66430;BME280;53242;51.694;10.006;2023-04-07T02:39:02;99557.13;;;4.94;52.63
66430;BME280;53242;51.694;10.006;2023-04-07T02:41:25;99552.84;;;4.85;53.29
66430;BME280;53242;51.694;10.006;2023-04-07T02:43:48;99552.56;;;4.88;53.08
66430;BME280;53242;51.694;10.006;2023-04-07T02:46:11;99545.97;;;4.84;52.92
66430;BME280;53242;51.694;10.006;2023-04-07T02:48:34;99551.72;;;4.88;53.06
66430;BME280;53242;51.694;10.006;2023-04-07T02:50:57;99547.44;;;4.78;53.07
66430;BME280;53242;51.694;10.006;2023-04-07T02:53:20;99548.72;;;4.74;53.65
66430;BME280;53242;51.694;10.006;2023-04-07T02:55:42;99539.44;;;4.80;53.52
66430;BME280;53242;51.694;10.006;2023-04-07T02:58:05;99553.78;;;4.76;53.75
66430;BME280;53242;51.694;10.006;2023-04-07T03:00:35;99545.75;;;4.69;54.08
66430;BME280;53242;51.694;10.006;2023-04-07T03:03:04;99548.66;;;4.66;54.36
66430;BME280;53242;51.694;10.006;2023-04-07T03:05:30;99542.94;;;4.63;54.42
66430;BME280;53242;51.694;10.006;2023-04-07T03:07:52;99544.53;;;4.55;54.34
66430;BME280;53242;51.694;10.006;2023-04-07T03:10:15;99540.38;;;4.44;54.79
66430;BME280;53242;51.694;10.006;2023-04-07T03:12:37;99536.94;;;4.44;55.20
66430;BME280;53242;51.694;10.006;2023-04-07T03:15:00;99541.50;;;4.42;55.21
66430;BME280;53242;51.694;10.006;2023-04-07T03:17:22;99542.47;;;4.41;55.25
66430;BME280;53242;51.694;10.006;2023-04-07T03:19:45;99542.75;;;4.38;55.42
66430;BME280;53242;51.694;10.006;2023-04-07T03:22:08;99541.16;;;4.37;55.17
66430;BME280;53242;51.694;10.006;2023-04-07T03:24:35;99539.66;;;4.34;55.33
66430;BME280;53242;51.694;10.006;2023-04-07T03:26:58;99540.47;;;4.35;55.67
66430;BME280;53242;51.694;10.006;2023-04-07T03:29:32;99532.06;;;4.23;55.90
66430;BME280;53242;51.694;10.006;2023-04-07T03:31:55;99536.09;;;4.17;56.31
66430;BME280;53242;51.694;10.006;2023-04-07T03:34:20;99530.41;;;4.22;55.82
66430;BME280;53242;51.694;10.006;2023-04-07T03:36:42;99534.53;;;4.24;55.85
66430;BME280;53242;51.694;10.006;2023-04-07T03:39:05;99532.22;;;4.21;55.84
66430;BME280;53242;51.694;10.006;2023-04-07T03:41:28;99530.78;;;4.27;56.00
66430;BME280;53242;51.694;10.006;2023-04-07T03:43:51;99534.84;;;4.21;55.64
66430;BME280;53242;51.694;10.006;2023-04-07T03:46:14;99536.97;;;4.26;55.80
66430;BME280;53242;51.694;10.006;2023-04-07T03:48:39;99538.97;;;4.32;55.62
66430;BME280;53242;51.694;10.006;2023-04-07T03:51:04;99540.06;;;4.21;55.90
66430;BME280;53242;51.694;10.006;2023-04-07T03:53:27;99531.53;;;4.19;55.97
66430;BME280;53242;51.694;10.006;2023-04-07T03:55:50;99532.66;;;4.17;55.88
66430;BME280;53242;51.694;10.006;2023-04-07T03:58:30;99536.41;;;4.14;56.24
66430;BME280;53242;51.694;10.006;2023-04-07T04:00:53;99532.31;;;4.11;55.98
66430;BME280;53242;51.694;10.006;2023-04-07T04:03:15;99536.63;;;4.21;55.77
66430;BME280;53242;51.694;10.006;2023-04-07T04:06:09;99541.41;;;4.07;56.30
66430;BME280;53242;51.694;10.006;2023-04-07T04:08:32;99538.50;;;4.10;56.34
66430;BME280;53242;51.694;10.006;2023-04-07T04:10:54;99553.94;;;4.04;56.72
66430;BME280;53242;51.694;10.006;2023-04-07T04:13:20;99554.38;;;3.99;56.34
66430;BME280;53242;51.694;10.006;2023-04-07T04:15:43;99551.19;;;4.05;55.74
66430;BME280;53242;51.694;10.006;2023-04-07T04:18:09;99549.69;;;4.03;55.94
66430;BME280;53242;51.694;10.006;2023-04-07T04:20:32;99547.75;;;4.05;55.64
66430;BME280;53242;51.694;10.006;2023-04-07T04:22:55;99548.03;;;4.02;56.28
66430;BME280;53242;51.694;10.006;2023-04-07T04:25:18;99540.47;;;3.90;56.90
66430;BME280;53242;51.694;10.006;2023-04-07T04:27:46;99537.25;;;3.78;57.30
66430;BME280;53242;51.694;10.006;2023-04-07T04:30:20;99542.56;;;3.87;56.76
66430;BME280;53242;51.694;10.006;2023-04-07T04:32:47;99535.47;;;3.79;57.03
66430;BME280;53242;51.694;10.006;2023-04-07T04:35:12;99543.56;;;3.76;57.06
66430;BME280;53242;51.694;10.006;2023-04-07T04:37:44;99534.88;;;3.85;56.54
66430;BME280;53242;51.694;10.006;2023-04-07T04:40:07;99533.66;;;3.79;56.71
66430;BME280;53242;51.694;10.006;2023-04-07T04:42:31;99543.09;;;3.72;56.79
66430;BME280;53242;51.694;10.006;2023-04-07T04:44:56;99540.16;;;3.75;56.83
66430;BME280;53242;51.694;10.006;2023-04-07T04:47:19;99544.03;;;3.71;57.37
66430;BME280;53242;51.694;10.006;2023-04-07T04:49:42;99540.47;;;3.72;56.83
66430;BME280;53242;51.694;10.006;2023-04-07T04:52:04;99539.19;;;3.76;57.05
66430;BME280;53242;51.694;10.006;2023-04-07T04:54:33;99550.22;;;3.70;57.67
66430;BME280;53242;51.694;10.006;2023-04-07T04:56:56;99553.38;;;3.74;56.57
66430;BME280;53242;51.694;10.006;2023-04-07T04:59:19;99556.03;;;3.82;56.35
66430;BME280;53242;51.694;10.006;2023-04-07T05:01:59;99550.44;;;3.77;56.65
66430;BME280;53242;51.694;10.006;2023-04-07T05:04:21;99552.31;;;3.85;56.02
66430;BME280;53242;51.694;10.006;2023-04-07T05:06:53;99545.00;;;3.88;56.21
66430;BME280;53242;51.694;10.006;2023-04-07T05:09:18;99552.91;;;3.97;55.74
66430;BME280;53242;51.694;10.006;2023-04-07T05:11:43;99560.38;;;3.91;56.17
66430;BME280;53242;51.694;10.006;2023-04-07T05:14:06;99553.94;;;4.04;55.41
66430;BME280;53242;51.694;10.006;2023-04-07T05:16:28;99554.63;;;4.06;54.81
66430;BME280;53242;51.694;10.006;2023-04-07T05:18:51;99554.84;;;3.94;55.88
66430;BME280;53242;51.694;10.006;2023-04-07T05:21:15;99559.63;;;3.99;55.51
66430;BME280;53242;51.694;10.006;2023-04-07T05:23:37;99557.91;;;4.08;55.27
66430;BME280;53242;51.694;10.006;2023-04-07T05:26:01;99556.63;;;4.12;54.94
66430;BME280;53242;51.694;10.006;2023-04-07T05:28:25;99559.22;;;4.12;54.94
66430;BME280;53242;51.694;10.006;2023-04-07T05:30:51;99559.22;;;4.12;54.81
66430;BME280;53242;51.694;10.006;2023-04-07T05:33:14;99567.75;;;4.14;54.85
66430;BME280;53242;51.694;10.006;2023-04-07T05:35:43;99563.66;;;4.11;55.11
66430;BME280;53242;51.694;10.006;2023-04-07T05:38:05;99559.19;;;4.04;55.10
66430;BME280;53242;51.694;10.006;2023-04-07T05:40:28;99561.84;;;4.12;55.26
66430;BME280;53242;51.694;10.006;2023-04-07T05:42:54;99559.91;;;4.14;54.94
66430;BME280;53242;51.694;10.006;2023-04-07T05:45:16;99561.34;;;4.08;55.21
66430;BME280;53242;51.694;10.006;2023-04-07T05:47:42;99565.66;;;4.18;54.92
66430;BME280;53242;51.694;10.006;2023-04-07T05:50:07;99561.25;;;4.18;54.50
66430;BME280;53242;51.694;10.006;2023-04-07T05:52:30;99563.03;;;4.18;54.56
66430;BME280;53242;51.694;10.006;2023-04-07T05:55:03;99565.50;;;4.19;54.81
66430;BME280;53242;51.694;10.006;2023-04-07T05:57:26;99567.03;;;4.30;54.42
66430;BME280;53242;51.694;10.006;2023-04-07T05:59:49;99571.25;;;4.23;54.70
66430;BME280;53242;51.694;10.006;2023-04-07T06:02:12;99573.72;;;4.24;54.81
66430;BME280;53242;51.694;10.006;2023-04-07T06:04:35;99572.13;;;4.32;54.67
66430;BME280;53242;51.694;10.006;2023-04-07T06:07:00;99575.19;;;4.27;54.91
66430;BME280;53242;51.694;10.006;2023-04-07T06:09:23;99579.66;;;4.35;54.66
66430;BME280;53242;51.694;10.006;2023-04-07T06:11:45;99577.41;;;4.40;54.09
66430;BME280;53242;51.694;10.006;2023-04-07T06:14:11;99574.81;;;4.40;54.38
66430;BME280;53242;51.694;10.006;2023-04-07T06:16:33;99585.25;;;4.40;54.58
66430;BME280;53242;51.694;10.006;2023-04-07T06:18:55;99586.03;;;4.58;54.09
66430;BME280;53242;51.694;10.006;2023-04-07T06:21:18;99589.63;;;4.57;53.79
66430;BME280;53242;51.694;10.006;2023-04-07T06:23:40;99585.66;;;4.53;54.34
66430;BME280;53242;51.694;10.006;2023-04-07T06:26:03;99594.34;;;4.80;53.70
66430;BME280;53242;51.694;10.006;2023-04-07T06:28:25;99589.81;;;4.90;53.51
66430;BME280;53242;51.694;10.006;2023-04-07T06:30:48;99585.66;;;5.06;53.04
66430;BME280;53242;51.694;10.006;2023-04-07T06:33:11;99586.88;;;5.20;52.49
66430;BME280;53242;51.694;10.006;2023-04-07T06:35:35;99594.78;;;5.44;51.92
66430;BME280;53242;51.694;10.006;2023-04-07T06:37:58;99594.00;;;5.52;51.58
66430;BME280;53242;51.694;10.006;2023-04-07T06:40:20;99601.06;;;5.60;51.12
66430;BME280;53242;51.694;10.006;2023-04-07T06:42:43;99592.69;;;5.48;51.62
66430;BME280;53242;51.694;10.006;2023-04-07T06:45:12;99597.81;;;5.66;51.51
66430;BME280;53242;51.694;10.006;2023-04-07T06:47:35;99596.03;;;5.75;50.78
66430;BME280;53242;51.694;10.006;2023-04-07T06:49:57;99597.56;;;5.94;50.63
66430;BME280;53242;51.694;10.006;2023-04-07T06:52:19;99606.34;;;5.76;50.70
66430;BME280;53242;51.694;10.006;2023-04-07T06:54:42;99603.78;;;6.01;50.37
66430;BME280;53242;51.694;10.006;2023-04-07T06:57:05;99601.50;;;6.06;49.92
66430;BME280;53242;51.694;10.006;2023-04-07T06:59:33;99602.50;;;6.05;50.55
66430;BME280;53242;51.694;10.006;2023-04-07T07:01:55;99601.03;;;6.11;50.30
66430;BME280;53242;51.694;10.006;2023-04-07T07:04:17;99607.69;;;5.97;50.93
66430;BME280;53242;51.694;10.006;2023-04-07T07:06:40;99608.56;;;6.14;50.33
66430;BME280;53242;51.694;10.006;2023-04-07T07:09:02;99610.06;;;6.25;50.38
66430;BME280;53242;51.694;10.006;2023-04-07T07:11:25;99609.22;;;6.41;49.71
66430;BME280;53242;51.694;10.006;2023-04-07T07:13:48;99603.28;;;6.72;49.38
66430;BME280;53242;51.694;10.006;2023-04-07T07:16:11;99610.69;;;6.77;49.35
66430;BME280;53242;51.694;10.006;2023-04-07T07:18:39;99604.38;;;7.02;49.05
66430;BME280;53242;51.694;10.006;2023-04-07T07:21:01;99611.38;;;7.27;48.37
66430;BME280;53242;51.694;10.006;2023-04-07T07:23:24;99605.09;;;6.88;48.82
66430;BME280;53242;51.694;10.006;2023-04-07T07:25:46;99610.13;;;7.06;48.71
66430;BME280;53242;51.694;10.006;2023-04-07T07:28:09;99611.91;;;7.14;48.55
66430;BME280;53242;51.694;10.006;2023-04-07T07:30:31;99612.59;;;7.39;48.31
66430;BME280;53242;51.694;10.006;2023-04-07T07:32:54;99620.41;;;7.87;47.20
66430;BME280;53242;51.694;10.006;2023-04-07T07:35:16;99614.91;;;7.73;46.93
66430;BME280;53242;51.694;10.006;2023-04-07T07:37:39;99615.59;;;7.99;46.85
66430;BME280;53242;51.694;10.006;2023-04-07T07:40:02;99616.69;;;8.04;46.85
66430;BME280;53242;51.694;10.006;2023-04-07T07:42:24;99616.34;;;8.31;46.81
66430;BME280;53242;51.694;10.006;2023-04-07T07:44:47;99622.13;;;8.49;46.46
66430;BME280;53242;51.694;10.006;2023-04-07T07:47:09;99627.50;;;8.33;46.33
66430;BME280;53242;51.694;10.006;2023-04-07T07:49:33;99614.44;;;8.63;46.18
66430;BME280;53242;51.694;10.006;2023-04-07T07:51:56;99617.84;;;8.86;45.96
66430;BME280;53242;51.694;10.006;2023-04-07T07:54:20;99624.47;;;8.82;45.79
66430;BME280;53242;51.694;10.006;2023-04-07T07:56:43;99629.47;;;8.77;46.09
66430;BME280;53242;51.694;10.006;2023-04-07T07:59:05;99622.78;;;9.04;45.77
66430;BME280;53242;51.694;10.006;2023-04-07T08:01:31;99626.41;;;9.18;46.04
66430;BME280;53242;51.694;10.006;2023-04-07T08:03:53;99628.28;;;9.25;46.88
66430;BME280;53242;51.694;10.006;2023-04-07T08:06:16;99623.22;;;9.23;47.06
66430;BME280;53242;51.694;10.006;2023-04-07T08:08:39;99633.41;;;9.26;46.41
66430;BME280;53242;51.694;10.006;2023-04-07T08:11:01;99635.81;;;9.58;45.70
66430;BME280;53242;51.694;10.006;2023-04-07T08:13:24;99639.91;;;9.45;46.01
66430;BME280;53242;51.694;10.006;2023-04-07T08:15:46;99635.34;;;9.69;45.94
66430;BME280;53242;51.694;10.006;2023-04-07T08:18:09;99635.53;;;9.67;44.96
66430;BME280;53242;51.694;10.006;2023-04-07T08:20:32;99634.69;;;9.67;45.87
66430;BME280;53242;51.694;10.006;2023-04-07T08:22:54;99641.03;;;10.09;45.99
66430;BME280;53242;51.694;10.006;2023-04-07T08:25:17;99639.81;;;10.27;45.19
66430;BME280;53242;51.694;10.006;2023-04-07T08:27:40;99642.28;;;10.35;44.97
66430;BME280;53242;51.694;10.006;2023-04-07T08:30:04;99639.66;;;10.35;45.06
66430;BME280;53242;51.694;10.006;2023-04-07T08:32:41;99643.44;;;10.26;46.14
66430;BME280;53242;51.694;10.006;2023-04-07T08:35:04;99643.19;;;10.20;45.89
66430;BME280;53242;51.694;10.006;2023-04-07T08:37:27;99645.88;;;10.06;46.37
66430;BME280;53242;51.694;10.006;2023-04-07T08:39:49;99638.28;;;9.96;46.94
66430;BME280;53242;51.694;10.006;2023-04-07T08:42:12;99648.31;;;10.29;46.73
66430;BME280;53242;51.694;10.006;2023-04-07T08:44:35;99642.13;;;10.86;45.70
66430;BME280;53242;51.694;10.006;2023-04-07T08:47:00;99634.88;;;10.67;46.58
66430;BME280;53242;51.694;10.006;2023-04-07T08:49:24;99633.44;;;10.64;46.73
66430;BME280;53242;51.694;10.006;2023-04-07T08:51:49;99625.03;;;11.17;45.94
66430;BME280;53242;51.694;10.006;2023-04-07T08:54:15;99630.53;;;11.16;46.25
66430;BME280;53242;51.694;10.006;2023-04-07T08:56:41;99628.88;;;11.08;46.09
66430;BME280;53242;51.694;10.006;2023-04-07T08:59:05;99624.72;;;11.27;45.86
66430;BME280;53242;51.694;10.006;2023-04-07T09:01:28;99629.69;;;11.50;46.06
66430;BME280;53242;51.694;10.006;2023-04-07T09:03:51;99637.06;;;11.20;46.27
66430;BME280;53242;51.694;10.006;2023-04-07T09:06:14;99634.44;;;11.27;45.70
66430;BME280;53242;51.694;10.006;2023-04-07T09:08:37;99638.88;;;11.19;46.17
66430;BME280;53242;51.694;10.006;2023-04-07T09:10:59;99636.69;;;11.23;46.31
66430;BME280;53242;51.694;10.006;2023-04-07T09:13:25;99646.13;;;11.04;46.58
66430;BME280;53242;51.694;10.006;2023-04-07T09:15:48;99640.13;;;11.24;46.80
66430;BME280;53242;51.694;10.006;2023-04-07T09:18:10;99638.16;;;11.39;46.68
66430;BME280;53242;51.694;10.006;2023-04-07T09:20:54;99645.28;;;11.39;47.38
66430;BME280;53242;51.694;10.006;2023-04-07T09:23:38;99646.41;;;11.64;46.80
66430;BME280;53242;51.694;10.006;2023-04-07T09:28:57;99649.41;;;11.55;46.62
66430;BME280;53242;51.694;10.006;2023-04-07T09:31:21;99645.53;;;11.50;46.43
66430;BME280;53242;51.694;10.006;2023-04-07T09:33:44;99640.19;;;11.92;45.77
66430;BME280;53242;51.694;10.006;2023-04-07T09:36:07;99632.94;;;12.08;46.20
66430;BME280;53242;51.694;10.006;2023-04-07T09:38:34;99632.88;;;11.88;43.70
66430;BME280;53242;51.694;10.006;2023-04-07T09:41:11;99632.72;;;12.09;44.03
66430;BME280;53242;51.694;10.006;2023-04-07T09:43:42;99627.06;;;12.26;42.21
66430;BME280;53242;51.694;10.006;2023-04-07T09:46:14;99620.91;;;12.05;40.79
66430;BME280;53242;51.694;10.006;2023-04-07T09:48:37;99615.09;;;11.68;38.21
66430;BME280;53242;51.694;10.006;2023-04-07T09:51:16;99610.56;;;12.37;39.09
66430;BME280;53242;51.694;10.006;2023-04-07T09:53:49;99612.22;;;12.31;35.67
66430;BME280;53242;51.694;10.006;2023-04-07T09:56:14;99609.78;;;12.43;35.98
66430;BME280;53242;51.694;10.006;2023-04-07T09:58:38;99611.56;;;12.76;35.73
66430;BME280;53242;51.694;10.006;2023-04-07T10:01:05;99604.25;;;12.25;34.28
66430;BME280;53242;51.694;10.006;2023-04-07T10:03:31;99606.69;;;12.80;34.55
66430;BME280;53242;51.694;10.006;2023-04-07T10:05:55;99599.78;;;12.19;33.65
66430;BME280;53242;51.694;10.006;2023-04-07T10:08:17;99610.97;;;12.68;33.79
66430;BME280;53242;51.694;10.006;2023-04-07T10:10:41;99606.91;;;12.58;33.00
66430;BME280;53242;51.694;10.006;2023-04-07T10:13:05;99602.22;;;12.60;34.00
66430;BME280;53242;51.694;10.006;2023-04-07T10:15:29;99611.94;;;13.00;34.14
66430;BME280;53242;51.694;10.006;2023-04-07T10:17:52;99597.69;;;13.01;34.24
66430;BME280;53242;51.694;10.006;2023-04-07T10:20:17;99606.25;;;12.96;33.60
66430;BME280;53242;51.694;10.006;2023-04-07T10:22:41;99607.38;;;13.27;34.45
66430;BME280;53242;51.694;10.006;2023-04-07T10:25:06;99603.28;;;13.84;34.39
66430;BME280;53242;51.694;10.006;2023-04-07T10:27:52;99605.75;;;13.26;33.41
66430;BME280;53242;51.694;10.006;2023-04-07T10:30:17;99599.41;;;13.34;33.27
66430;BME280;53242;51.694;10.006;2023-04-07T10:32:49;99621.34;;;12.96;33.49
66430;BME280;53242;51.694;10.006;2023-04-07T10:35:11;99603.97;;;13.07;33.98
66430;BME280;53242;51.694;10.006;2023-04-07T10:37:34;99603.50;;;13.37;33.81
66430;BME280;53242;51.694;10.006;2023-04-07T10:45:06;99607.03;;;13.69;33.70
66430;BME280;53242;51.694;10.006;2023-04-07T10:47:30;99598.50;;;13.99;33.06
66430;BME280;53242;51.694;10.006;2023-04-07T10:50:25;99614.88;;;14.21;32.15
66430;BME280;53242;51.694;10.006;2023-04-07T10:53:03;99606.97;;;14.14;32.55
66430;BME280;53242;51.694;10.006;2023-04-07T10:55:32;99609.94;;;14.50;32.59
66430;BME280;53242;51.694;10.006;2023-04-07T11:00:36;99598.69;;;14.29;32.42
66430;BME280;53242;51.694;10.006;2023-04-07T11:03:09;99610.28;;;14.35;31.25
66430;BME280;53242;51.694;10.006;2023-04-07T11:05:34;99616.56;;;14.41;32.46
66430;BME280;53242;51.694;10.006;2023-04-07T11:07:59;99597.75;;;14.17;32.62
66430;BME280;53242;51.694;10.006;2023-04-07T11:10:26;99597.09;;;14.22;32.30
66430;BME280;53242;51.694;10.006;2023-04-07T11:12:59;99604.09;;;14.16;31.18
66430;BME280;53242;51.694;10.006;2023-04-07T11:15:22;99597.25;;;14.27;31.72
66430;BME280;53242;51.694;10.006;2023-04-07T11:17:45;99601.72;;;14.33;31.66
66430;BME280;53242;51.694;10.006;2023-04-07T11:20:08;99588.81;;;14.62;31.01
66430;BME280;53242;51.694;10.006;2023-04-07T11:22:30;99588.41;;;14.65;30.46
66430;BME280;53242;51.694;10.006;2023-04-07T11:24:55;99588.56;;;14.89;31.91
66430;BME280;53242;51.694;10.006;2023-04-07T11:27:19;99591.00;;;14.72;31.17
66430;BME280;53242;51.694;10.006;2023-04-07T11:29:41;99590.06;;;14.85;30.49
66430;BME280;53242;51.694;10.006;2023-04-07T11:32:05;99596.53;;;14.89;30.63
66430;BME280;53242;51.694;10.006;2023-04-07T11:34:32;99593.84;;;14.95;30.77
66430;BME280;53242;51.694;10.006;2023-04-07T11:36:54;99596.56;;;15.26;31.25
66430;BME280;53242;51.694;10.006;2023-04-07T11:39:21;99591.69;;;15.23;31.60
66430;BME280;53242;51.694;10.006;2023-04-07T11:41:48;99591.69;;;15.04;30.41
66430;BME280;53242;51.694;10.006;2023-04-07T11:44:11;99592.09;;;14.64;30.32
66430;BME280;53242;51.694;10.006;2023-04-07T11:46:34;99587.19;;;15.05;30.77
66430;BME280;53242;51.694;10.006;2023-04-07T11:49:08;99582.22;;;14.71;29.13
66430;BME280;53242;51.694;10.006;2023-04-07T11:51:31;99590.66;;;14.61;29.31
66430;BME280;53242;51.694;10.006;2023-04-07T11:53:54;99599.19;;;14.89;30.02
66430;BME280;53242;51.694;10.006;2023-04-07T11:56:17;99597.34;;;14.71;30.12
66430;BME280;53242;51.694;10.006;2023-04-07T11:58:46;99593.09;;;14.88;29.06
66430;BME280;53242;51.694;10.006;2023-04-07T12:01:08;99604.81;;;14.80;29.71
66430;BME280;53242;51.694;10.006;2023-04-07T12:03:32;99587.38;;;14.66;29.43
66430;BME280;53242;51.694;10.006;2023-04-07T12:05:55;99602.09;;;14.62;29.40
66430;BME280;53242;51.694;10.006;2023-04-07T12:08:17;99601.50;;;14.85;30.34
66430;BME280;53242;51.694;10.006;2023-04-07T12:10:41;99605.63;;;14.81;29.44
66430;BME280;53242;51.694;10.006;2023-04-07T12:13:04;99604.31;;;15.09;30.13
66430;BME280;53242;51.694;10.006;2023-04-07T12:15:26;99602.16;;;14.99;29.98
66430;BME280;53242;51.694;10.006;2023-04-07T12:17:49;99599.50;;;14.99;29.66
66430;BME280;53242;51.694;10.006;2023-04-07T12:20:12;99597.94;;;14.73;29.30
66430;BME280;53242;51.694;10.006;2023-04-07T12:22:35;99602.00;;;14.94;29.65
66430;BME280;53242;51.694;10.006;2023-04-07T12:24:57;99594.34;;;15.04;29.59
66430;BME280;53242;51.694;10.006;2023-04-07T12:27:20;99604.09;;;15.10;30.55
66430;BME280;53242;51.694;10.006;2023-04-07T12:29:42;99603.66;;;14.95;30.04
66430;BME280;53242;51.694;10.006;2023-04-07T12:32:05;99595.47;;;15.15;30.05
66430;BME280;53242;51.694;10.006;2023-04-07T12:34:27;99586.22;;;15.36;30.52
66430;BME280;53242;51.694;10.006;2023-04-07T12:36:50;99600.19;;;15.32;29.66
66430;BME280;53242;51.694;10.006;2023-04-07T12:39:12;99604.63;;;15.01;29.36
66430;BME280;53242;51.694;10.006;2023-04-07T12:41:35;99602.81;;;14.76;28.79
66430;BME280;53242;51.694;10.006;2023-04-07T12:43:59;99595.00;;;15.18;29.15
66430;BME280;53242;51.694;10.006;2023-04-07T12:46:22;99608.00;;;15.08;29.43
66430;BME280;53242;51.694;10.006;2023-04-07T12:48:47;99595.06;;;14.24;28.95
66430;BME280;53242;51.694;10.006;2023-04-07T12:51:10;99599.13;;;14.77;29.33
66430;BME280;53242;51.694;10.006;2023-04-07T12:53:33;99592.19;;;14.76;29.66
66430;BME280;53242;51.694;10.006;2023-04-07T12:55:55;99598.63;;;14.87;29.69
66430;BME280;53242;51.694;10.006;2023-04-07T12:58:19;99593.31;;;14.61;28.85
66430;BME280;53242;51.694;10.006;2023-04-07T13:00:41;99599.34;;;14.94;29.68
66430;BME280;53242;51.694;10.006;2023-04-07T13:03:03;99598.75;;;14.73;29.15